Terminal Aerodrome Forecast
Issued by NWS

Home | Current Version | Previous Version | Text Only | Print | Product List | Glossary On
Versions: 1 2 3 4 5 6 7 8 9 10 11 12 13 14 15 16 17 18 19 20 21 22 23 24 25 26 27 28 29 30
000
FTUS43 KDVN 291803 AAB
TAFBRL
TAF AMD
KBRL 291803Z 2918/3018 VRB04KT P6SM VCTS SCT025CB BKN200
     FM292200 VRB04KT P6SM VCTS SCT025CB BKN200
      TEMPO 2922/3002 4SM TSRA BR BKN025CB
     FM300300 VRB03KT P6SM SCT030 BKN200
     FM300700 VRB03KT 3SM BR VCSH SCT030 BKN150
     FM301400 VRB03KT 6SM BR VCSH SCT030 BKN150=

USA.gov is the U.S. government's official web portal to all federal, state and local government web resources and services.